createdAt,value
2018-04-28T00:00:15.554Z,0
2018-04-28T00:01:15.785Z,0
2018-04-28T00:02:15.758Z,0
2018-04-28T00:03:15.487Z,0
2018-04-28T00:04:15.703Z,0
2018-04-28T00:05:15.689Z,0
2018-04-28T00:06:15.663Z,0
2018-04-28T00:07:15.652Z,0
2018-04-28T00:08:15.625Z,0
2018-04-28T00:09:15.096Z,0
2018-04-28T00:10:15.333Z,0
2018-04-28T00:11:15.054Z,0
2018-04-28T00:12:15.280Z,0
2018-04-28T00:13:15.277Z,0
2018-04-28T00:14:15.241Z,0
2018-04-28T00:15:14.972Z,0
2018-04-28T00:16:15.436Z,0
2018-04-28T00:17:15.168Z,0
2018-04-28T00:18:15.143Z,0
2018-04-28T00:19:15.381Z,0
2018-04-28T00:20:15.100Z,0
2018-04-28T00:21:15.342Z,0
2018-04-28T00:22:15.403Z,0
2018-04-28T00:23:15.040Z,0
2018-04-28T00:24:15.018Z,0
2018-04-28T00:25:14.992Z,0
2018-04-28T00:26:14.803Z,0
2018-04-28T00:27:15.190Z,0
2018-04-28T00:28:15.170Z,0
2018-04-28T00:29:14.898Z,0
2018-04-28T00:30:15.121Z,0
2018-04-28T00:31:15.109Z,0
2018-04-28T00:32:15.079Z,0
2018-04-28T00:33:14.802Z,0
2018-04-28T00:34:15.027Z,0
2018-04-28T00:35:15.008Z,0
2018-04-28T00:36:14.988Z,0
2018-04-28T00:37:14.465Z,0
2018-04-28T00:38:14.702Z,0
2018-04-28T00:39:14.914Z,0
2018-04-28T00:40:14.640Z,0
2018-04-28T00:41:14.622Z,0
2018-04-28T00:42:14.350Z,0
2018-04-28T00:43:14.931Z,0
2018-04-28T00:44:14.553Z,0
2018-04-28T00:45:14.530Z,0
2018-04-28T00:46:14.510Z,0
2018-04-28T00:47:14.495Z,0
2018-04-28T00:48:14.467Z,0
2018-04-28T00:49:14.444Z,0
2018-04-28T00:50:14.174Z,0
2018-04-28T00:51:14.499Z,0
2018-04-28T00:52:14.616Z,0
2018-04-28T00:53:14.102Z,0
2018-04-28T00:54:14.579Z,0
2018-04-28T00:55:14.312Z,0
2018-04-28T00:56:14.544Z,0
2018-04-28T00:57:14.521Z,0
2018-04-28T00:58:14.235Z,0
2018-04-28T00:59:14.208Z,0
2018-04-28T01:00:14.441Z,0
2018-04-28T01:01:14.167Z,0
2018-04-28T01:02:14.403Z,0
2018-04-28T01:03:14.379Z,0
2018-04-28T01:04:14.356Z,0
2018-04-28T01:05:14.399Z,0
2018-04-28T01:06:14.060Z,0
2018-04-28T01:07:14.040Z,0
2018-04-28T01:08:13.762Z,0
2018-04-28T01:09:13.994Z,0
2018-04-28T01:10:13.729Z,0
2018-04-28T01:11:13.954Z,0
2018-04-28T01:12:13.673Z,0
2018-04-28T01:13:14.139Z,0
2018-04-28T01:14:14.121Z,0
2018-04-28T01:15:13.851Z,0
2018-04-28T01:16:13.834Z,0
2018-04-28T01:17:13.803Z,0
2018-04-28T01:18:13.539Z,0
2018-04-28T01:19:13.759Z,0
2018-04-28T01:20:13.738Z,0
2018-04-28T01:21:13.721Z,0
2018-04-28T01:22:13.937Z,0
2018-04-28T01:23:13.928Z,0
2018-04-28T01:24:13.895Z,0
2018-04-28T01:25:13.374Z,0
2018-04-28T01:26:13.850Z,0
2018-04-28T01:27:13.829Z,0
2018-04-28T01:28:13.804Z,0
2018-04-28T01:29:13.282Z,0
2018-04-28T01:30:13.433Z,0
2018-04-28T01:31:13.740Z,0
2018-04-28T01:32:13.718Z,0
2018-04-28T01:33:13.683Z,0
2018-04-28T01:34:13.426Z,0
2018-04-28T01:35:13.400Z,0
2018-04-28T01:36:13.374Z,0
2018-04-28T01:37:13.346Z,0
2018-04-28T01:38:13.326Z,0
2018-04-28T01:39:13.314Z,0
2018-04-28T01:40:13.029Z,0
2018-04-28T01:41:13.511Z,0
2018-04-28T01:42:13.240Z,0
2018-04-28T01:43:13.215Z,0
2018-04-28T01:44:12.945Z,0
2018-04-28T01:45:13.427Z,0
2018-04-28T01:46:13.402Z,0
2018-04-28T01:47:13.120Z,0
2018-04-28T01:48:12.961Z,0
2018-04-28T01:49:13.324Z,0
2018-04-28T01:50:12.563Z,0
2018-04-28T01:51:12.533Z,0
2018-04-28T01:52:13.251Z,0
2018-04-28T01:53:13.233Z,0
2018-04-28T01:54:12.713Z,0
2018-04-28T01:55:12.949Z,0
2018-04-28T01:56:12.668Z,0
2018-04-28T01:57:12.647Z,0
2018-04-28T01:58:12.617Z,0
2018-04-28T01:59:13.109Z,0
2018-04-28T02:00:13.570Z,0
2018-04-28T02:01:12.308Z,0
2018-04-28T02:02:12.535Z,0
2018-04-28T02:03:13.028Z,0
2018-04-28T02:04:12.736Z,0
2018-04-28T02:05:12.961Z,0
2018-04-28T02:06:12.196Z,0
2018-04-28T02:07:12.415Z,0
2018-04-28T02:08:12.397Z,0
2018-04-28T02:09:12.368Z,0
2018-04-28T02:10:12.600Z,0
2018-04-28T02:11:12.319Z,0
2018-04-28T02:12:12.546Z,0
2018-04-28T02:13:12.777Z,0
2018-04-28T02:14:12.753Z,0
2018-04-28T02:15:12.487Z,0
2018-04-28T02:16:11.956Z,0
2018-04-28T02:17:12.440Z,0
2018-04-28T02:18:12.414Z,0
2018-04-28T02:19:12.630Z,0
2018-04-28T02:20:12.617Z,0
2018-04-28T02:21:12.593Z,0
2018-04-28T02:22:12.569Z,0
2018-04-28T02:23:12.544Z,0
2018-04-28T02:24:12.269Z,0
2018-04-28T02:25:12.255Z,0
2018-04-28T02:26:12.478Z,0
2018-04-28T02:27:12.204Z,0
2018-04-28T02:28:11.933Z,0
2018-04-28T02:29:11.907Z,0
2018-04-28T02:30:12.399Z,0
2018-04-28T02:31:12.365Z,0
2018-04-28T02:32:12.349Z,0
2018-04-28T02:33:12.073Z,0
2018-04-28T02:34:12.293Z,0
2018-04-28T02:35:12.021Z,0
2018-04-28T02:36:11.985Z,0
2018-04-28T02:37:12.217Z,0
2018-04-28T02:38:12.215Z,0
2018-04-28T02:39:12.218Z,0
2018-04-28T02:40:11.908Z,0
2018-04-28T02:41:11.880Z,0
2018-04-28T02:42:12.105Z,0
2018-04-28T02:43:11.579Z,0
2018-04-28T02:44:12.056Z,0
2018-04-28T02:45:11.790Z,0
2018-04-28T02:46:12.014Z,0
2018-04-28T02:47:11.746Z,0
2018-04-28T02:48:11.969Z,0
2018-04-28T02:49:11.441Z,0
2018-04-28T02:50:12.199Z,0
2018-04-28T02:51:11.389Z,0
2018-04-28T02:52:11.371Z,0
2018-04-28T02:53:11.838Z,0
2018-04-28T02:54:11.576Z,0
2018-04-28T02:55:11.554Z,0
2018-04-28T02:56:11.624Z,0
2018-04-28T02:57:11.512Z,0
2018-04-28T02:58:11.731Z,0
2018-04-28T02:59:11.447Z,0
2018-04-28T03:00:11.443Z,0
2018-04-28T03:01:11.401Z,0
2018-04-28T03:02:11.383Z,0
2018-04-28T03:03:11.353Z,0
2018-04-28T03:04:11.588Z,0
2018-04-28T03:05:11.331Z,0
2018-04-28T03:06:11.539Z,0
2018-04-28T03:07:11.016Z,0
2018-04-28T03:08:11.500Z,0
2018-04-28T03:09:11.219Z,0
2018-04-28T03:10:11.494Z,0
2018-04-28T03:11:11.428Z,0
2018-04-28T03:12:10.906Z,0
2018-04-28T03:13:11.395Z,0
2018-04-28T03:14:11.107Z,0
2018-04-28T03:15:10.845Z,0
2018-04-28T03:16:10.562Z,0
2018-04-28T03:17:11.043Z,0
2018-04-28T03:18:11.250Z,0
2018-04-28T03:19:10.732Z,0
2018-04-28T03:20:10.704Z,0
2018-04-28T03:21:10.473Z,0
2018-04-28T03:22:10.933Z,0
2018-04-28T03:23:11.135Z,0
2018-04-28T03:24:10.867Z,0
2018-04-28T03:25:10.598Z,0
2018-04-28T03:26:10.572Z,0
2018-04-28T03:27:10.549Z,0
2018-04-28T03:28:11.020Z,0
2018-04-28T03:29:10.748Z,0
2018-04-28T03:30:10.977Z,0
2018-04-28T03:31:10.736Z,0
2018-04-28T03:32:10.944Z,0
2018-04-28T03:33:10.411Z,0
2018-04-28T03:34:10.637Z,0
2018-04-28T03:35:10.108Z,0
2018-04-28T03:36:10.588Z,0
2018-04-28T03:37:10.064Z,0
2018-04-28T03:38:10.542Z,0
2018-04-28T03:39:10.769Z,0
2018-04-28T03:40:10.740Z,0
2018-04-28T03:41:10.212Z,0
2018-04-28T03:42:10.443Z,0
2018-04-28T03:43:10.168Z,0
2018-04-28T03:44:09.892Z,0
2018-04-28T03:45:10.372Z,0
2018-04-28T03:46:10.090Z,0
2018-04-28T03:47:10.066Z,0
2018-04-28T03:48:10.544Z,0
2018-04-28T03:49:10.036Z,0
2018-04-28T03:50:10.260Z,0
2018-04-28T03:51:10.238Z,0
2018-04-28T03:52:09.960Z,0
2018-04-28T03:53:10.182Z,0
2018-04-28T03:54:10.163Z,0
2018-04-28T03:55:09.884Z,5
2018-04-28T03:56:10.351Z,5
2018-04-28T03:57:10.082Z,5
2018-04-28T03:58:10.315Z,5
2018-04-28T03:59:10.279Z,5
2018-04-28T04:00:10.268Z,10
2018-04-28T04:01:10.242Z,10
2018-04-28T04:02:09.965Z,10
2018-04-28T04:03:10.189Z,10
2018-04-28T04:04:10.164Z,15
2018-04-28T04:05:09.896Z,15
2018-04-28T04:06:09.862Z,15
2018-04-28T04:07:09.593Z,15
2018-04-28T04:08:09.583Z,20
2018-04-28T04:09:09.299Z,20
2018-04-28T04:10:09.773Z,20
2018-04-28T04:11:09.757Z,25
2018-04-28T04:12:09.736Z,25
2018-04-28T04:13:09.956Z,30
2018-04-28T04:14:09.929Z,30
2018-04-28T04:15:09.656Z,35
2018-04-28T04:16:10.139Z,40
2018-04-28T04:17:09.356Z,40
2018-04-28T04:18:09.441Z,45
2018-04-28T04:19:09.572Z,50
2018-04-28T04:20:09.539Z,50
2018-04-28T04:21:09.016Z,50
2018-04-28T04:22:09.489Z,60
2018-04-28T04:23:09.473Z,60
2018-04-28T04:24:09.443Z,60
2018-04-28T04:25:09.178Z,65
2018-04-28T04:26:09.150Z,65
2018-04-28T04:27:09.621Z,70
2018-04-28T04:28:09.103Z,75
2018-04-28T04:29:09.578Z,75
2018-04-28T04:30:09.552Z,80
2018-04-28T04:31:09.533Z,85
2018-04-28T04:32:09.358Z,85
2018-04-28T04:33:09.486Z,90
2018-04-28T04:34:09.457Z,95
2018-04-28T04:35:09.436Z,95
2018-04-28T04:36:09.167Z,100
2018-04-28T04:37:09.142Z,105
2018-04-28T04:38:09.126Z,110
2018-04-28T04:39:08.852Z,110
2018-04-28T04:40:09.086Z,115
2018-04-28T04:41:08.796Z,115
2018-04-28T04:42:08.774Z,120
2018-04-28T04:43:09.016Z,120
2018-04-28T04:44:08.973Z,125
2018-04-28T04:45:09.212Z,130
2018-04-28T04:46:08.677Z,135
2018-04-28T04:47:09.151Z,140
2018-04-28T04:48:08.639Z,150
2018-04-28T04:49:09.115Z,155
2018-04-28T04:50:09.092Z,160
2018-04-28T04:51:09.162Z,170
2018-04-28T04:52:08.300Z,175
2018-04-28T04:53:08.757Z,180
2018-04-28T04:54:08.748Z,190
2018-04-28T04:55:08.721Z,190
2018-04-28T04:56:08.709Z,195
2018-04-28T04:57:08.920Z,195
2018-04-28T04:58:08.397Z,200
2018-04-28T04:59:08.378Z,200
2018-04-28T05:00:08.352Z,205
2018-04-28T05:01:08.587Z,210
2018-04-28T05:02:08.806Z,215
2018-04-28T05:03:08.534Z,220
2018-04-28T05:04:08.265Z,220
2018-04-28T05:05:08.743Z,220
2018-04-28T05:06:08.728Z,225
2018-04-28T05:07:08.448Z,230
2018-04-28T05:08:08.416Z,235
2018-04-28T05:09:08.156Z,230
2018-04-28T05:10:08.134Z,235
2018-04-28T05:11:08.351Z,235
2018-04-28T05:12:08.593Z,230
2018-04-28T05:13:08.310Z,230
2018-04-28T05:14:08.569Z,230
2018-04-28T05:15:08.263Z,235
2018-04-28T05:16:08.235Z,235
2018-04-28T05:17:07.965Z,235
2018-04-28T05:18:07.955Z,240
2018-04-28T05:19:08.244Z,240
2018-04-28T05:20:07.896Z,245
2018-04-28T05:21:08.139Z,245
2018-04-28T05:22:08.099Z,250
2018-04-28T05:23:08.328Z,255
2018-04-28T05:24:08.068Z,265
2018-04-28T05:25:07.792Z,265
2018-04-28T05:26:08.020Z,270
2018-04-28T05:27:07.741Z,275
2018-04-28T05:28:08.213Z,285
2018-04-28T05:29:08.196Z,290
2018-04-28T05:30:07.425Z,305
2018-04-28T05:31:08.167Z,310
2018-04-28T05:32:08.220Z,320
2018-04-28T05:33:08.105Z,330
2018-04-28T05:34:08.090Z,335
2018-04-28T05:35:07.808Z,340
2018-04-28T05:36:08.169Z,345
2018-04-28T05:37:08.012Z,350
2018-04-28T05:38:07.747Z,350
2018-04-28T05:39:07.969Z,350
2018-04-28T05:40:07.959Z,355
2018-04-28T05:41:07.434Z,350
2018-04-28T05:42:07.405Z,350
2018-04-28T05:43:07.383Z,350
2018-04-28T05:44:07.613Z,345
2018-04-28T05:45:07.604Z,345
2018-04-28T05:46:07.318Z,360
2018-04-28T05:47:07.800Z,365
2018-04-28T05:48:07.774Z,375
2018-04-28T05:49:07.749Z,385
2018-04-28T05:50:07.482Z,405
2018-04-28T05:51:07.457Z,410
2018-04-28T05:52:07.434Z,395
2018-04-28T05:53:07.411Z,420
2018-04-28T05:54:07.154Z,435
2018-04-28T05:55:07.117Z,440
2018-04-28T05:56:07.349Z,440
2018-04-28T05:57:07.328Z,575
2018-04-28T05:58:07.564Z,740
2018-04-28T05:59:07.539Z,855
2018-04-28T06:00:07.511Z,825
2018-04-28T06:01:07.255Z,890
2018-04-28T06:02:07.629Z,830
2018-04-28T06:03:07.451Z,965
2018-04-28T06:04:07.434Z,930
2018-04-28T06:05:07.163Z,800
2018-04-28T06:06:07.146Z,970
2018-04-28T06:07:07.118Z,960
2018-04-28T06:08:07.109Z,855
2018-04-28T06:09:07.094Z,1180
2018-04-28T06:10:07.065Z,1015
2018-04-28T06:11:07.301Z,960
2018-04-28T06:12:07.017Z,995
2018-04-28T06:13:07.246Z,1060
2018-04-28T06:14:07.107Z,975
2018-04-28T06:15:06.724Z,950
2018-04-28T06:16:06.699Z,805
2018-04-28T06:17:06.681Z,1050
2018-04-28T06:18:07.157Z,970
2018-04-28T06:19:06.886Z,710
2018-04-28T06:20:06.587Z,560
2018-04-28T06:21:07.098Z,535
2018-04-28T06:22:07.083Z,540
2018-04-28T06:23:07.140Z,560
2018-04-28T06:24:07.047Z,730
2018-04-28T06:25:06.789Z,880
2018-04-28T06:26:07.116Z,1030
2018-04-28T06:27:06.990Z,1000
2018-04-28T06:28:06.728Z,920
2018-04-28T06:29:06.711Z,910
2018-04-28T06:30:06.681Z,940
2018-04-28T06:31:06.927Z,1020
2018-04-28T06:32:06.894Z,745
2018-04-28T06:33:06.882Z,1020
2018-04-28T06:34:06.871Z,1030
2018-04-28T06:35:06.850Z,1065
2018-04-28T06:36:06.829Z,1060
2018-04-28T06:37:06.575Z,1060
2018-04-28T06:38:06.627Z,1015
2018-04-28T06:39:06.288Z,1115
2018-04-28T06:40:06.515Z,1050
2018-04-28T06:41:06.267Z,1095
2018-04-28T06:42:06.240Z,1270
2018-04-28T06:43:06.209Z,1250
2018-04-28T06:44:06.191Z,1055
2018-04-28T06:45:06.452Z,1040
2018-04-28T06:46:06.415Z,735
2018-04-28T06:47:06.143Z,965
2018-04-28T06:48:06.688Z,1065
2018-04-28T06:49:06.359Z,985
2018-04-28T06:50:06.345Z,890
2018-04-28T06:51:06.469Z,995
2018-04-28T06:52:06.548Z,915
2018-04-28T06:53:06.536Z,925
2018-04-28T06:54:06.265Z,640
2018-04-28T06:55:06.007Z,565
2018-04-28T06:56:06.480Z,645
2018-04-28T06:57:06.468Z,625
2018-04-28T06:58:06.197Z,610
2018-04-28T06:59:05.935Z,650
2018-04-28T07:00:05.925Z,625
2018-04-28T07:01:05.900Z,625
2018-04-28T07:02:05.883Z,665
2018-04-28T07:03:06.110Z,585
2018-04-28T07:04:06.096Z,560
2018-04-28T07:05:05.824Z,590
2018-04-28T07:06:06.072Z,785
2018-04-28T07:07:05.795Z,1385
2018-04-28T07:08:06.124Z,1350
2018-04-28T07:09:06.258Z,1140
2018-04-28T07:10:06.236Z,1520
2018-04-28T07:11:05.723Z,1520
2018-04-28T07:12:05.962Z,1405
2018-04-28T07:13:05.685Z,1225
2018-04-28T07:14:06.177Z,1160
2018-04-28T07:15:06.187Z,1390
2018-04-28T07:16:06.136Z,1265
2018-04-28T07:17:06.124Z,1380
2018-04-28T07:18:06.133Z,1210
2018-04-28T07:19:05.586Z,1170
2018-04-28T07:20:05.819Z,835
2018-04-28T07:21:05.945Z,835
2018-04-28T07:22:05.791Z,920
2018-04-28T07:23:05.785Z,1345
2018-04-28T07:24:05.757Z,885
2018-04-28T07:25:05.248Z,760
2018-04-28T07:26:05.977Z,755
2018-04-28T07:27:05.473Z,760
2018-04-28T07:28:05.698Z,755
2018-04-28T07:29:05.942Z,740
2018-04-28T07:30:05.911Z,725
2018-04-28T07:31:05.896Z,760
2018-04-28T07:32:05.962Z,770
2018-04-28T07:33:05.371Z,755
2018-04-28T07:34:05.856Z,740
2018-04-28T07:35:05.580Z,770
2018-04-28T07:36:05.322Z,795
2018-04-28T07:37:05.696Z,785
2018-04-28T07:38:05.537Z,790
2018-04-28T07:39:05.777Z,820
2018-04-28T07:40:05.261Z,840
2018-04-28T07:41:05.249Z,845
2018-04-28T07:42:05.477Z,850
2018-04-28T07:43:05.702Z,850
2018-04-28T07:44:05.686Z,865
2018-04-28T07:45:05.748Z,930
2018-04-28T07:46:04.908Z,930
2018-04-28T07:47:05.391Z,945
2018-04-28T07:48:05.615Z,990
2018-04-28T07:49:05.607Z,1005
2018-04-28T07:50:05.586Z,960
2018-04-28T07:51:05.317Z,915
2018-04-28T07:52:05.314Z,830
2018-04-28T07:53:05.544Z,825
2018-04-28T07:54:05.731Z,865
2018-04-28T07:55:05.254Z,920
2018-04-28T07:56:05.502Z,940
2018-04-28T07:57:05.471Z,930
2018-04-28T07:58:05.452Z,990
2018-04-28T07:59:05.437Z,1010
2018-04-28T08:00:05.172Z,995
2018-04-28T08:01:05.409Z,1000
2018-04-28T08:02:05.387Z,935
2018-04-28T08:03:05.378Z,935
2018-04-28T08:04:05.354Z,945
2018-04-28T08:05:05.343Z,1000
2018-04-28T08:06:05.320Z,1040
2018-04-28T08:07:04.938Z,1015
2018-04-28T08:08:05.039Z,1035
2018-04-28T08:09:05.292Z,1045
2018-04-28T08:10:04.673Z,1040
2018-04-28T08:11:04.740Z,1025
2018-04-28T08:12:04.977Z,1030
2018-04-28T08:13:05.401Z,1015
2018-04-28T08:14:08.008Z,960
2018-04-28T08:15:05.179Z,1025
2018-04-28T08:16:05.161Z,1055
2018-04-28T08:17:04.400Z,1065
2018-04-28T08:18:05.129Z,1100
2018-04-28T08:19:04.615Z,1110
2018-04-28T08:20:04.849Z,1085
2018-04-28T08:21:05.085Z,1050
2018-04-28T08:22:04.820Z,1070
2018-04-28T08:23:04.797Z,1040
2018-04-28T08:24:04.868Z,1080
2018-04-28T08:25:04.765Z,1135
2018-04-28T08:26:04.516Z,1155
2018-04-28T08:27:04.739Z,1210
2018-04-28T08:28:04.970Z,1185
2018-04-28T08:29:05.030Z,1155
2018-04-28T08:30:04.707Z,1175
2018-04-28T08:31:04.180Z,1215
2018-04-28T08:32:04.662Z,1100
2018-04-28T08:33:04.654Z,1105
2018-04-28T08:34:04.385Z,1245
2018-04-28T08:35:04.693Z,1330
2018-04-28T08:36:04.855Z,930
2018-04-28T08:37:05.184Z,1010
2018-04-28T08:38:04.818Z,1000
2018-04-28T08:39:04.560Z,1385
2018-04-28T08:40:04.542Z,1200
2018-04-28T08:41:04.526Z,1195
2018-04-28T08:42:04.269Z,1260
2018-04-28T08:43:04.246Z,1200
2018-04-28T08:44:04.735Z,1280
2018-04-28T08:45:04.472Z,1275
2018-04-28T08:46:04.732Z,1200
2018-04-28T08:47:04.443Z,1290
2018-04-28T08:48:04.671Z,1295
2018-04-28T08:49:04.164Z,1165
2018-04-28T08:50:04.646Z,1195
2018-04-28T08:51:04.220Z,1195
2018-04-28T08:52:04.637Z,1190
2018-04-28T08:53:04.607Z,1180
2018-04-28T08:54:04.589Z,1065
2018-04-28T08:55:04.571Z,915
2018-04-28T08:56:04.561Z,805
2018-04-28T08:57:04.560Z,835
2018-04-28T08:58:04.291Z,845
2018-04-28T08:59:04.030Z,785
2018-04-28T09:00:04.510Z,1030
2018-04-28T09:01:04.499Z,650
2018-04-28T09:02:03.978Z,1545
2018-04-28T09:03:04.458Z,885
2018-04-28T09:04:04.209Z,1240
2018-04-28T09:05:04.188Z,2250
2018-04-28T09:06:04.428Z,1745
2018-04-28T09:07:04.162Z,1795
2018-04-28T09:08:04.153Z,1965
2018-04-28T09:09:03.881Z,2210
2018-04-28T09:10:03.864Z,1240
2018-04-28T09:11:03.846Z,2330
2018-04-28T09:12:04.092Z,1835
2018-04-28T09:13:04.481Z,1715
2018-04-28T09:14:03.559Z,1225
2018-04-28T09:15:04.094Z,2110
2018-04-28T09:16:04.033Z,2120
2018-04-28T09:17:03.768Z,1935
2018-04-28T09:18:04.012Z,2475
2018-04-28T09:19:04.248Z,760
2018-04-28T09:20:03.741Z,2385
2018-04-28T09:21:03.745Z,790
2018-04-28T09:22:03.715Z,700
2018-04-28T09:23:04.200Z,2450
2018-04-28T09:24:03.441Z,2385
2018-04-28T09:25:03.927Z,2550
2018-04-28T09:26:03.924Z,1160
2018-04-28T09:27:03.903Z,1055
2018-04-28T09:28:03.149Z,865
2018-04-28T09:29:03.629Z,850
2018-04-28T09:30:03.868Z,1095
2018-04-28T09:31:03.604Z,2335
2018-04-28T09:32:03.854Z,2425
2018-04-28T09:33:03.735Z,1465
2018-04-28T09:34:03.828Z,1185
2018-04-28T09:35:03.574Z,1575
2018-04-28T09:36:03.802Z,1320
2018-04-28T09:37:04.048Z,1405
2018-04-28T09:38:03.532Z,1415
2018-04-28T09:39:04.007Z,1215
2018-04-28T09:40:03.784Z,1135
2018-04-28T09:41:03.576Z,1130
2018-04-28T09:42:03.747Z,1310
2018-04-28T09:43:03.721Z,1470
2018-04-28T09:44:03.700Z,1555
2018-04-28T09:45:03.695Z,2095
2018-04-28T09:46:03.430Z,1990
2018-04-28T09:47:03.665Z,2320
2018-04-28T09:48:03.911Z,2420
2018-04-28T09:49:03.398Z,1615
2018-04-28T09:50:03.874Z,1060
2018-04-28T09:51:03.864Z,1055
2018-04-28T09:52:03.597Z,1500
2018-04-28T09:53:03.587Z,1845
2018-04-28T09:54:03.579Z,1525
2018-04-28T09:55:03.321Z,1255
2018-04-28T09:56:03.647Z,1240
2018-04-28T09:57:03.569Z,1590
2018-04-28T09:58:03.534Z,1525
2018-04-28T09:59:04.054Z,1375
2018-04-28T10:00:03.754Z,1125
2018-04-28T10:01:03.510Z,1135
2018-04-28T10:02:03.477Z,1190
2018-04-28T10:03:03.361Z,1315
2018-04-28T10:04:03.832Z,1425
2018-04-28T10:05:03.101Z,1340
2018-04-28T10:06:04.605Z,1300
2018-04-28T10:07:04.018Z,1250
2018-04-28T10:08:03.662Z,1180
2018-04-28T10:09:03.429Z,1060
2018-04-28T10:10:03.632Z,950
2018-04-28T10:11:03.373Z,935
2018-04-28T10:12:03.360Z,970
2018-04-28T10:13:03.601Z,1025
2018-04-28T10:14:03.333Z,1145
2018-04-28T10:15:03.321Z,1185
2018-04-28T10:16:03.316Z,1195
2018-04-28T10:17:02.842Z,1355
2018-04-28T10:18:03.525Z,1185
2018-04-28T10:19:03.270Z,1070
2018-04-28T10:20:03.376Z,1010
2018-04-28T10:21:03.499Z,1015
2018-04-28T10:22:03.475Z,1005
2018-04-28T10:23:02.964Z,885
2018-04-28T10:24:03.450Z,810
2018-04-28T10:25:03.433Z,810
2018-04-28T10:26:03.422Z,865
2018-04-28T10:27:03.157Z,965
2018-04-28T10:28:03.397Z,1085
2018-04-28T10:29:03.122Z,1030
2018-04-28T10:30:02.867Z,1030
2018-04-28T10:31:03.681Z,1065
2018-04-28T10:32:03.087Z,1110
2018-04-28T10:33:03.318Z,1095
2018-04-28T10:34:03.051Z,1040
2018-04-28T10:35:03.297Z,965
2018-04-28T10:36:03.027Z,935
2018-04-28T10:37:03.263Z,880
2018-04-28T10:38:03.257Z,820
2018-04-28T10:39:03.229Z,830
2018-04-28T10:40:02.963Z,910
2018-04-28T10:41:02.710Z,985
2018-04-28T10:42:02.952Z,1020
2018-04-28T10:43:03.179Z,1035
2018-04-28T10:44:02.666Z,1075
2018-04-28T10:45:02.894Z,1130
2018-04-28T10:46:03.135Z,1125
2018-04-28T10:47:03.121Z,1100
2018-04-28T10:48:03.109Z,1050
2018-04-28T10:49:03.084Z,965
2018-04-28T10:50:03.081Z,875
2018-04-28T10:51:03.062Z,800
2018-04-28T10:52:02.796Z,765
2018-04-28T10:53:03.033Z,750
2018-04-28T10:54:03.288Z,790
2018-04-28T10:55:02.503Z,835
2018-04-28T10:56:02.996Z,890
2018-04-28T10:57:02.772Z,1035
2018-04-28T10:58:02.959Z,1120
2018-04-28T10:59:03.015Z,1150
2018-04-28T11:00:02.683Z,1150
2018-04-28T11:01:02.683Z,1120
2018-04-28T11:02:02.656Z,1110
2018-04-28T11:03:02.637Z,1075
2018-04-28T11:04:02.622Z,1075
2018-04-28T11:05:02.859Z,1080
2018-04-28T11:06:02.603Z,1000
2018-04-28T11:07:02.594Z,920
2018-04-28T11:08:02.572Z,890
2018-04-28T11:09:02.888Z,880
2018-04-28T11:10:02.789Z,895
2018-04-28T11:11:02.527Z,915
2018-04-28T11:12:02.512Z,845
2018-04-28T11:13:02.755Z,765
2018-04-28T11:14:02.812Z,715
2018-04-28T11:15:02.464Z,710
2018-04-28T11:16:02.696Z,710
2018-04-28T11:17:02.448Z,705
2018-04-28T11:18:02.413Z,710
2018-04-28T11:19:02.658Z,745
2018-04-28T11:20:02.671Z,835
2018-04-28T11:21:02.634Z,985
2018-04-28T11:22:02.609Z,1155
2018-04-28T11:23:02.956Z,1285
2018-04-28T11:24:02.601Z,1410
2018-04-28T11:25:02.585Z,1500
2018-04-28T11:26:02.398Z,1500
2018-04-28T11:27:02.541Z,1495
2018-04-28T11:28:02.277Z,1385
2018-04-28T11:29:02.504Z,1195
2018-04-28T11:30:02.498Z,1125
2018-04-28T11:31:02.479Z,1065
2018-04-28T11:32:01.968Z,955
2018-04-28T11:33:02.729Z,840
2018-04-28T11:34:02.191Z,765
2018-04-28T11:35:01.930Z,725
2018-04-28T11:36:02.415Z,805
2018-04-28T11:37:02.140Z,1010
2018-04-28T11:38:02.214Z,1155
2018-04-28T11:39:02.369Z,1190
2018-04-28T11:40:02.098Z,1185
2018-04-28T11:41:02.343Z,1160
2018-04-28T11:42:02.072Z,1135
2018-04-28T11:43:02.313Z,1190
2018-04-28T11:44:02.306Z,1385
2018-04-28T11:45:02.288Z,1475
2018-04-28T11:46:01.772Z,1430
2018-04-28T11:47:02.253Z,1365
2018-04-28T11:48:01.989Z,1340
2018-04-28T11:49:02.238Z,1345
2018-04-28T11:50:02.222Z,1300
2018-04-28T11:51:01.947Z,1275
2018-04-28T11:52:01.946Z,1220
2018-04-28T11:53:02.374Z,1205
2018-04-28T11:54:01.914Z,1210
2018-04-28T11:55:01.899Z,1190
2018-04-28T11:56:02.129Z,1130
2018-04-28T11:57:02.904Z,1085
2018-04-28T11:58:01.882Z,1055
2018-04-28T11:59:02.203Z,1050
2018-04-28T12:00:01.872Z,1190
2018-04-28T12:01:02.104Z,1130
2018-04-28T12:02:01.824Z,1045
2018-04-28T12:03:01.812Z,990
2018-04-28T12:04:01.791Z,1015
2018-04-28T12:05:01.781Z,1030
2018-04-28T12:06:02.129Z,1030
2018-04-28T12:07:02.002Z,1025
2018-04-28T12:08:01.723Z,995
2018-04-28T12:09:02.038Z,970
2018-04-28T12:10:01.704Z,960
2018-04-28T12:11:01.193Z,960
2018-04-28T12:12:01.935Z,1010
2018-04-28T12:13:01.909Z,1155
2018-04-28T12:14:01.350Z,1225
2018-04-28T12:15:01.992Z,1375
2018-04-28T12:16:01.631Z,1355
2018-04-28T12:17:01.871Z,1260
2018-04-28T12:18:01.593Z,1100
2018-04-28T12:19:01.833Z,1050
2018-04-28T12:20:01.815Z,1215
2018-04-28T12:21:01.941Z,1210
2018-04-28T12:22:01.552Z,1165
2018-04-28T12:23:01.276Z,1060
2018-04-28T12:24:01.521Z,970
2018-04-28T12:25:01.638Z,1040
2018-04-28T12:26:01.508Z,1195
2018-04-28T12:27:01.234Z,1290
2018-04-28T12:28:01.472Z,1375
2018-04-28T12:29:00.957Z,1320
2018-04-28T12:30:02.091Z,1305
2018-04-28T12:31:01.677Z,1140
2018-04-28T12:32:01.661Z,1070
2018-04-28T12:33:01.149Z,1035
2018-04-28T12:34:01.641Z,1065
2018-04-28T12:35:01.128Z,990
2018-04-28T12:36:01.891Z,855
2018-04-28T12:37:01.629Z,780
2018-04-28T12:38:01.077Z,780
2018-04-28T12:39:01.316Z,745
2018-04-28T12:40:01.310Z,705
2018-04-28T12:41:01.548Z,670
2018-04-28T12:42:01.530Z,650
2018-04-28T12:43:01.030Z,710
2018-04-28T12:44:01.002Z,800
2018-04-28T12:45:01.484Z,950
2018-04-28T12:46:01.482Z,965
2018-04-28T12:47:01.468Z,895
2018-04-28T12:48:00.956Z,880
2018-04-28T12:49:01.437Z,875
2018-04-28T12:50:01.168Z,865
2018-04-28T12:51:01.537Z,805
2018-04-28T12:52:01.144Z,750
2018-04-28T12:53:01.120Z,675
2018-04-28T12:54:01.116Z,605
2018-04-28T12:55:01.096Z,575
2018-04-28T12:56:01.079Z,530
2018-04-28T12:57:01.335Z,515
2018-04-28T12:58:01.307Z,510
2018-04-28T12:59:01.296Z,500
2018-04-28T13:00:01.270Z,485
2018-04-28T13:01:01.254Z,465
2018-04-28T13:02:01.245Z,445
2018-04-28T13:03:00.730Z,450
2018-04-28T13:04:01.216Z,490
2018-04-28T13:05:01.203Z,540
2018-04-28T13:06:01.018Z,610
2018-04-28T13:07:00.926Z,615
2018-04-28T13:08:00.667Z,630
2018-04-28T13:09:00.889Z,670
2018-04-28T13:10:00.624Z,660
2018-04-28T13:11:00.858Z,635
2018-04-28T13:12:01.098Z,635
2018-04-28T13:13:01.340Z,675
2018-04-28T13:14:01.062Z,720
2018-04-28T13:15:01.052Z,920
2018-04-28T13:16:01.029Z,970
2018-04-28T13:17:01.014Z,1075
2018-04-28T13:18:00.995Z,1185
2018-04-28T13:19:00.986Z,1170
2018-04-28T13:20:00.979Z,1145
2018-04-28T13:21:00.703Z,1100
2018-04-28T13:22:00.932Z,1020
2018-04-28T13:23:00.854Z,980
2018-04-28T13:24:00.661Z,955
2018-04-28T13:25:00.402Z,1020
2018-04-28T13:26:00.878Z,1005
2018-04-28T13:27:00.602Z,965
2018-04-28T13:28:00.346Z,990
2018-04-28T13:29:00.591Z,940
2018-04-28T13:30:00.318Z,870
2018-04-28T13:31:00.808Z,845
2018-04-28T13:32:00.784Z,870
2018-04-28T13:33:00.281Z,890
2018-04-28T13:34:00.753Z,850
2018-04-28T13:35:00.490Z,790
2018-04-28T13:36:00.726Z,715
2018-04-28T13:37:00.716Z,640
2018-04-28T13:38:00.451Z,590
2018-04-28T13:39:00.684Z,550
2018-04-28T13:40:00.167Z,505
2018-04-28T13:41:00.742Z,465
2018-04-28T13:42:00.395Z,440
2018-04-28T13:43:00.137Z,445
2018-04-28T13:44:00.613Z,500
2018-04-28T13:45:00.102Z,515
2018-04-28T13:46:00.580Z,535
2018-04-28T13:47:00.567Z,555
2018-04-28T13:48:00.563Z,575
2018-04-28T13:49:00.282Z,585
2018-04-28T13:50:00.024Z,575
2018-04-28T13:51:00.500Z,595
2018-04-28T13:52:00.489Z,685
2018-04-28T13:53:00.470Z,790
2018-04-28T13:54:00.456Z,825
2018-04-28T13:55:00.438Z,855